createdAt,value
2023-04-10T00:00:20.191Z,4.25
2023-04-10T00:02:47.264Z,4.25
2023-04-10T00:05:14.334Z,7.25
2023-04-10T00:07:41.235Z,1.40
2023-04-10T00:10:08.637Z,3.88
2023-04-10T00:12:36.104Z,2.20
2023-04-10T00:15:02.977Z,4.18
2023-04-10T00:17:31.261Z,2.78
2023-04-10T00:19:58.174Z,5.47
2023-04-10T00:22:25.049Z,4.65
2023-04-10T00:24:51.926Z,5.30
2023-04-10T00:27:18.790Z,2.05
2023-04-10T00:29:45.698Z,2.15
2023-04-10T00:32:12.629Z,3.70
2023-04-10T00:34:40.924Z,3.35
2023-04-10T00:37:07.802Z,2.30
2023-04-10T00:39:34.668Z,3.38
2023-04-10T00:42:01.546Z,4.55
2023-04-10T00:44:28.457Z,2.95
2023-04-10T00:46:55.346Z,4.93
2023-04-10T00:49:22.174Z,3.40
2023-04-10T00:51:50.416Z,4.85
2023-04-10T00:54:17.293Z,4.45
2023-04-10T00:56:44.544Z,2.70
2023-04-10T00:59:11.413Z,4.63
2023-04-10T01:01:38.572Z,2.53
2023-04-10T01:04:05.808Z,3.03
2023-04-10T01:06:39.819Z,1.77
2023-04-10T01:09:11.831Z,7.05
2023-04-10T01:11:44.334Z,4.82
2023-04-10T01:14:14.673Z,3.35
2023-04-10T01:16:43.182Z,4.13
2023-04-10T01:19:13.852Z,5.85
2023-04-10T01:21:40.732Z,4.18
2023-04-10T01:24:21.768Z,4.70
2023-04-10T01:26:56.623Z,4.82
2023-04-10T01:29:25.189Z,3.05
2023-04-10T01:31:53.655Z,5.40
2023-04-10T01:34:21.657Z,1.92
2023-04-10T01:36:50.114Z,3.20
2023-04-10T01:39:19.312Z,3.75
2023-04-10T01:41:46.248Z,6.68
2023-04-10T01:44:13.228Z,4.70
2023-04-10T01:46:42.495Z,2.72
2023-04-10T01:49:09.401Z,4.40
2023-04-10T01:51:36.251Z,4.03
2023-04-10T01:54:04.555Z,6.18
2023-04-10T01:56:32.625Z,2.78
2023-04-10T01:58:59.697Z,3.80
2023-04-10T02:01:30.192Z,4.15
2023-04-10T02:03:59.221Z,4.78
2023-04-10T02:06:29.574Z,3.15
2023-04-10T02:08:58.981Z,4.57
2023-04-10T02:11:31.754Z,4.53
2023-04-10T02:13:59.365Z,4.05
2023-04-10T02:16:26.301Z,4.35
2023-04-10T02:18:53.221Z,3.25
2023-04-10T02:21:21.487Z,4.45
2023-04-10T02:23:48.340Z,4.22
2023-04-10T02:26:15.175Z,6.43
2023-04-10T02:28:42.032Z,4.30
2023-04-10T02:31:08.949Z,3.47
2023-04-10T02:33:35.859Z,6.05
2023-04-10T02:36:02.784Z,5.20
2023-04-10T02:38:31.003Z,6.68
2023-04-10T02:40:57.854Z,4.55
2023-04-10T02:43:24.694Z,3.42
2023-04-10T02:45:51.545Z,8.15
2023-04-10T02:48:18.384Z,4.38
2023-04-10T02:50:45.260Z,4.72
2023-04-10T02:53:13.272Z,6.47
2023-04-10T02:55:41.529Z,5.18
2023-04-10T02:58:08.391Z,5.75
2023-04-10T03:00:36.298Z,6.53
2023-04-10T03:03:03.364Z,6.93
2023-04-10T03:05:30.635Z,10.48
2023-04-10T03:07:57.548Z,4.68
2023-04-10T03:10:24.413Z,4.82
2023-04-10T03:12:52.628Z,3.97
2023-04-10T03:15:19.556Z,6.47
2023-04-10T03:17:46.480Z,5.20
2023-04-10T03:20:13.690Z,4.90
2023-04-10T03:22:40.581Z,7.72
2023-04-10T03:25:08.227Z,5.55
2023-04-10T03:27:35.159Z,8.18
2023-04-10T03:30:03.826Z,5.13
2023-04-10T03:32:30.710Z,8.43
2023-04-10T03:34:57.770Z,7.22
2023-04-10T03:37:24.654Z,5.50
2023-04-10T03:39:51.534Z,8.50
2023-04-10T03:42:18.429Z,9.07
2023-04-10T03:44:45.300Z,6.47
2023-04-10T03:47:13.634Z,10.07
2023-04-10T03:49:40.587Z,6.55
2023-04-10T03:52:07.430Z,4.82
2023-04-10T03:54:34.303Z,6.15
2023-04-10T03:57:01.168Z,5.20
2023-04-10T03:59:37.907Z,6.68
2023-04-10T04:02:06.545Z,6.93
2023-04-10T04:04:34.845Z,6.35
2023-04-10T04:07:01.793Z,9.52
2023-04-10T04:09:28.656Z,6.25
2023-04-10T04:11:55.531Z,6.43
2023-04-10T04:14:23.813Z,7.85
2023-04-10T04:16:50.732Z,5.00
2023-04-10T04:19:17.723Z,9.20
2023-04-10T04:21:45.966Z,7.35
2023-04-10T04:24:12.897Z,6.80
2023-04-10T04:26:39.980Z,9.73
2023-04-10T04:29:06.838Z,5.43
2023-04-10T04:31:33.716Z,7.15
2023-04-10T04:34:00.660Z,7.43
2023-04-10T04:36:27.551Z,8.30
2023-04-10T04:38:55.843Z,8.60
2023-04-10T04:41:22.785Z,5.60
2023-04-10T04:43:49.701Z,8.20
2023-04-10T04:46:16.709Z,6.22
2023-04-10T04:48:43.616Z,6.63
2023-04-10T04:51:10.488Z,9.38
2023-04-10T04:53:37.427Z,9.15
2023-04-10T04:56:06.625Z,10.20
2023-04-10T04:58:33.505Z,9.48
2023-04-10T05:01:00.400Z,7.50
2023-04-10T05:03:27.354Z,5.15
2023-04-10T05:05:54.440Z,6.78
2023-04-10T05:08:21.282Z,7.10
2023-04-10T05:10:48.257Z,8.82
2023-04-10T05:13:16.511Z,8.45
2023-04-10T05:15:43.479Z,9.02
2023-04-10T05:18:10.531Z,5.53
2023-04-10T05:20:37.684Z,5.28
2023-04-10T05:23:04.579Z,5.95
2023-04-10T05:25:31.476Z,7.05
2023-04-10T05:27:58.360Z,8.93
2023-04-10T05:30:26.609Z,7.28
2023-04-10T05:32:53.471Z,8.65
2023-04-10T05:35:20.361Z,6.78
2023-04-10T05:37:47.244Z,5.85
2023-04-10T05:40:14.111Z,7.30
2023-04-10T05:42:40.992Z,6.47
2023-04-10T05:45:08.365Z,7.00
2023-04-10T05:47:36.659Z,5.57
2023-04-10T05:50:03.837Z,7.07
2023-04-10T05:52:30.684Z,4.72
2023-04-10T05:54:57.592Z,6.55
2023-04-10T05:57:25.423Z,10.25
2023-04-10T05:59:52.286Z,5.15
2023-04-10T06:02:19.410Z,7.75
2023-04-10T06:04:47.841Z,4.95
2023-04-10T06:07:14.829Z,7.68
2023-04-10T06:09:41.716Z,6.18
2023-04-10T06:12:08.577Z,7.55
2023-04-10T06:14:35.424Z,7.38
2023-04-10T06:17:02.263Z,6.45
2023-04-10T06:19:29.089Z,4.47
2023-04-10T06:21:57.361Z,7.38
2023-04-10T06:24:24.365Z,5.88
2023-04-10T06:26:51.293Z,8.45
2023-04-10T06:29:19.150Z,6.47
2023-04-10T06:31:46.077Z,8.13
2023-04-10T06:34:13.026Z,7.40
2023-04-10T06:36:39.887Z,4.80
2023-04-10T06:39:08.125Z,6.45
2023-04-10T06:41:34.992Z,7.78
2023-04-10T06:44:03.441Z,5.72
2023-04-10T06:46:30.637Z,6.85
2023-04-10T06:48:57.583Z,8.80
2023-04-10T06:51:24.529Z,10.10
2023-04-10T06:53:51.388Z,7.97
2023-04-10T06:56:19.933Z,9.68
2023-04-10T06:58:46.812Z,7.03
2023-04-10T07:01:13.842Z,7.18
2023-04-10T07:03:40.825Z,6.93
2023-04-10T07:06:08.087Z,6.78
2023-04-10T07:08:34.982Z,6.38
2023-04-10T07:11:01.822Z,7.15
2023-04-10T07:13:30.053Z,6.32
2023-04-10T07:15:57.014Z,4.72
2023-04-10T07:18:23.967Z,6.50
2023-04-10T07:20:51.416Z,12.25
2023-04-10T07:23:18.333Z,7.45
2023-04-10T07:25:45.172Z,8.23
2023-04-10T07:28:12.095Z,6.75
2023-04-10T07:30:40.464Z,8.05
2023-04-10T07:33:07.429Z,8.00
2023-04-10T07:35:34.562Z,4.95
2023-04-10T07:38:01.861Z,7.07
2023-04-10T07:40:28.764Z,5.45
2023-04-10T07:42:55.644Z,5.63
2023-04-10T07:45:22.523Z,6.28
2023-04-10T07:47:50.873Z,4.03
2023-04-10T07:50:17.862Z,4.78
2023-04-10T07:52:44.708Z,4.53
2023-04-10T07:55:11.589Z,4.47
2023-04-10T07:57:39.351Z,5.47
2023-04-10T08:00:08.641Z,6.82
2023-04-10T08:02:35.691Z,3.78
2023-04-10T08:05:04.382Z,6.18
2023-04-10T08:07:31.348Z,5.45
2023-04-10T08:09:58.229Z,3.85
2023-04-10T08:12:25.084Z,4.22
2023-04-10T08:14:51.988Z,6.10
2023-04-10T08:17:18.920Z,3.10
2023-04-10T08:19:45.799Z,4.30
2023-04-10T08:22:14.059Z,2.05
2023-04-10T08:24:40.910Z,3.45
2023-04-10T08:27:07.816Z,5.10
2023-04-10T08:29:34.778Z,4.43
2023-04-10T08:32:01.705Z,3.53
2023-04-10T08:34:28.652Z,2.78
2023-04-10T08:36:57.090Z,3.92
2023-04-10T08:39:25.399Z,3.92
2023-04-10T08:41:52.266Z,3.35
2023-04-10T08:44:19.125Z,4.65
2023-04-10T08:46:46.110Z,1.42
2023-04-10T08:49:17.252Z,3.83
2023-04-10T08:51:49.148Z,3.90
2023-04-10T08:54:20.506Z,1.73
2023-04-10T08:56:50.676Z,5.32
2023-04-10T08:59:17.595Z,2.70
2023-04-10T09:01:45.941Z,3.88
2023-04-10T09:04:13.048Z,3.58
2023-04-10T09:06:40.005Z,4.47
2023-04-10T09:09:06.875Z,3.30
2023-04-10T09:11:59.440Z,3.30
2023-04-10T09:14:26.944Z,2.28
2023-04-10T09:16:53.949Z,3.58
2023-04-10T09:19:29.964Z,4.07
2023-04-10T09:21:56.982Z,3.33
2023-04-10T09:24:23.885Z,4.47
2023-04-10T09:26:50.728Z,3.88
2023-04-10T09:29:19.122Z,2.83
2023-04-10T09:31:46.302Z,4.80
2023-04-10T09:34:16.045Z,4.22
2023-04-10T09:36:43.694Z,3.67
2023-04-10T09:39:11.137Z,2.05
2023-04-10T09:41:55.774Z,4.47
2023-04-10T09:44:30.323Z,2.85
2023-04-10T09:46:57.279Z,2.97
2023-04-10T09:49:24.157Z,2.72
2023-04-10T09:51:51.002Z,3.20
2023-04-10T09:54:17.842Z,3.05
2023-04-10T09:56:45.456Z,3.25
2023-04-10T09:59:12.325Z,3.67
2023-04-10T10:01:40.684Z,1.13
2023-04-10T10:04:07.650Z,6.22
2023-04-10T10:06:34.529Z,5.57
2023-04-10T10:09:02.642Z,2.47
2023-04-10T10:11:29.974Z,1.63
2023-04-10T10:13:56.822Z,3.25
2023-04-10T10:16:27.561Z,2.47
2023-04-10T10:18:59.644Z,3.67
2023-04-10T10:21:26.757Z,2.38
2023-04-10T10:23:53.733Z,3.25
2023-04-10T10:26:20.662Z,4.18
2023-04-10T10:28:47.611Z,3.65
2023-04-10T10:31:14.536Z,1.60
2023-04-10T10:33:41.466Z,3.50
2023-04-10T10:36:09.834Z,1.90
2023-04-10T10:38:36.923Z,2.40
2023-04-10T10:41:09.384Z,1.45
2023-04-10T10:43:37.930Z,1.60
2023-04-10T10:46:07.113Z,2.25
2023-04-10T10:48:34.065Z,2.13
2023-04-10T10:51:01.052Z,2.03
2023-04-10T10:53:36.799Z,2.92
2023-04-10T10:56:34.984Z,3.67
2023-04-10T10:59:01.896Z,2.45
2023-04-10T11:01:28.952Z,1.98
2023-04-10T11:03:56.063Z,3.70
2023-04-10T11:06:48.059Z,2.35
2023-04-10T11:09:49.793Z,2.13
2023-04-10T11:12:16.769Z,3.00
2023-04-10T11:14:43.679Z,2.15
2023-04-10T11:17:10.837Z,3.03
2023-04-10T11:20:05.127Z,2.97
2023-04-10T11:22:32.019Z,1.77
2023-04-10T11:25:00.784Z,0.98
2023-04-10T11:27:46.675Z,2.85
2023-04-10T11:30:29.068Z,3.80
2023-04-10T11:32:55.983Z,1.48
2023-04-10T11:35:22.942Z,2.17
2023-04-10T11:37:49.815Z,3.28
2023-04-10T11:40:18.180Z,4.03
2023-04-10T11:42:45.073Z,3.03
2023-04-10T11:45:25.632Z,2.05
2023-04-10T11:47:52.650Z,2.70
2023-04-10T11:50:19.883Z,2.15
2023-04-10T11:52:46.890Z,4.32
2023-04-10T11:55:13.787Z,2.42
2023-04-10T11:57:42.050Z,3.10
2023-04-10T12:00:09.824Z,2.42
2023-04-10T12:02:49.636Z,1.48
2023-04-10T12:05:16.782Z,2.83
2023-04-10T12:07:43.661Z,1.40
2023-04-10T12:10:10.572Z,3.47
2023-04-10T12:12:37.494Z,3.35
2023-04-10T12:15:21.601Z,4.68
2023-04-10T12:17:48.781Z,1.63
2023-04-10T12:20:16.072Z,1.90
2023-04-10T12:22:42.941Z,1.45
2023-04-10T12:25:12.064Z,2.58
2023-04-10T12:27:38.948Z,3.60
2023-04-10T12:30:09.488Z,1.23
2023-04-10T12:32:36.423Z,1.80
2023-04-10T12:35:03.400Z,2.88
2023-04-10T12:37:48.638Z,0.70
2023-04-10T12:40:15.614Z,1.75
2023-04-10T12:42:42.577Z,1.25
2023-04-10T12:45:11.074Z,2.85
2023-04-10T12:47:44.012Z,2.25
2023-04-10T12:50:11.686Z,1.90
2023-04-10T12:52:40.010Z,2.10
2023-04-10T12:55:14.163Z,2.38
2023-04-10T12:57:41.163Z,1.05
2023-04-10T13:00:10.545Z,2.05
2023-04-10T13:02:37.773Z,0.95
2023-04-10T13:05:05.598Z,1.83
2023-04-10T13:07:32.511Z,1.95
2023-04-10T13:09:59.476Z,2.60
2023-04-10T13:12:26.390Z,1.13
2023-04-10T13:14:53.710Z,1.92
2023-04-10T13:17:22.038Z,1.38
2023-04-10T13:19:48.924Z,1.92
2023-04-10T13:22:15.798Z,3.10
2023-04-10T13:24:42.701Z,2.78
2023-04-10T13:27:09.583Z,3.13
2023-04-10T13:29:36.479Z,2.60
2023-04-10T13:32:03.370Z,3.47
2023-04-10T13:34:31.601Z,1.83
2023-04-10T13:36:58.519Z,3.45
2023-04-10T13:39:26.329Z,3.15
2023-04-10T13:41:53.226Z,3.55
2023-04-10T13:44:20.087Z,3.00
2023-04-10T13:46:47.004Z,0.85
2023-04-10T13:49:13.955Z,1.58
2023-04-10T13:51:42.178Z,4.20
2023-04-10T13:54:09.026Z,2.63
2023-04-10T13:56:35.921Z,1.60
2023-04-10T13:59:02.788Z,2.38
2023-04-10T14:01:29.719Z,2.30
2023-04-10T14:03:56.871Z,1.30
2023-04-10T14:06:23.946Z,1.30
2023-04-10T14:08:52.433Z,1.50
2023-04-10T14:11:19.997Z,0.60
2023-04-10T14:13:47.025Z,0.40
2023-04-10T14:16:13.925Z,0.90
2023-04-10T14:18:40.794Z,1.13
2023-04-10T14:21:07.778Z,0.85
2023-04-10T14:23:34.637Z,2.35
2023-04-10T14:26:02.850Z,0.55
2023-04-10T14:28:29.752Z,1.35
2023-04-10T14:30:56.701Z,0.47
2023-04-10T14:33:23.727Z,0.80
2023-04-10T14:35:50.613Z,1.60
2023-04-10T14:38:17.511Z,1.30
2023-04-10T14:40:44.462Z,1.70
2023-04-10T14:43:12.666Z,0.82
2023-04-10T14:45:39.527Z,0.50
2023-04-10T14:48:06.520Z,1.55
2023-04-10T14:50:33.454Z,2.08
2023-04-10T14:53:00.353Z,1.95
2023-04-10T14:55:28.488Z,1.05
2023-04-10T14:57:56.615Z,1.13
2023-04-10T15:00:26.680Z,0.95
2023-04-10T15:02:53.968Z,1.38
2023-04-10T15:05:22.402Z,0.75
2023-04-10T15:07:49.279Z,1.70
2023-04-10T15:10:16.128Z,0.90
2023-04-10T15:12:42.993Z,1.38
2023-04-10T15:15:10.750Z,1.90
2023-04-10T15:17:39.132Z,0.88
2023-04-10T15:20:06.768Z,1.20
2023-04-10T15:22:33.709Z,2.22
2023-04-10T15:25:00.711Z,0.98
2023-04-10T15:27:27.619Z,1.02
2023-04-10T15:29:54.497Z,1.13
2023-04-10T15:32:21.415Z,1.10
2023-04-10T15:34:49.703Z,2.03
2023-04-10T15:37:16.555Z,1.52
2023-04-10T15:39:43.440Z,4.20
2023-04-10T15:42:10.543Z,2.70
2023-04-10T15:44:37.395Z,3.35
2023-04-10T15:47:04.295Z,2.92
2023-04-10T15:49:37.577Z,2.65
2023-04-10T15:52:07.160Z,2.08
2023-04-10T15:54:34.233Z,2.55
2023-04-10T15:57:01.186Z,3.63
2023-04-10T15:59:28.087Z,6.80
2023-04-10T16:01:55.031Z,3.65
2023-04-10T16:04:22.039Z,4.03
2023-04-10T16:06:48.965Z,2.92
2023-04-10T16:09:26.126Z,2.67
2023-04-10T16:11:53.552Z,2.40
2023-04-10T16:14:20.500Z,2.72
2023-04-10T16:16:47.383Z,0.73
2023-04-10T16:19:14.335Z,1.65
2023-04-10T16:21:41.246Z,1.90
2023-04-10T16:24:08.262Z,2.35
2023-04-10T16:26:36.499Z,4.90
2023-04-10T16:29:03.375Z,0.70
2023-04-10T16:31:30.290Z,2.22
2023-04-10T16:33:57.216Z,2.05
2023-04-10T16:36:24.076Z,4.10
2023-04-10T16:38:50.937Z,2.72
2023-04-10T16:41:17.851Z,3.38
2023-04-10T16:43:46.154Z,3.25
2023-04-10T16:46:13.106Z,2.90
2023-04-10T16:48:40.054Z,4.25
2023-04-10T16:51:08.280Z,2.70
2023-04-10T16:53:35.421Z,3.42
2023-04-10T16:56:04.516Z,1.63
2023-04-10T16:58:32.832Z,4.22
2023-04-10T17:01:01.317Z,1.55
2023-04-10T17:03:28.248Z,3.45
2023-04-10T17:05:55.101Z,3.00
2023-04-10T17:08:21.947Z,1.33
2023-04-10T17:10:48.851Z,1.75
2023-04-10T17:13:15.714Z,3.65
2023-04-10T17:15:42.585Z,2.88
2023-04-10T17:18:10.879Z,3.63
2023-04-10T17:20:37.930Z,0.82
2023-04-10T17:23:04.797Z,2.33
2023-04-10T17:25:31.760Z,2.03
2023-04-10T17:27:58.701Z,1.67
2023-04-10T17:30:25.700Z,1.98
2023-04-10T17:32:52.921Z,6.65
2023-04-10T17:35:21.165Z,3.65
2023-04-10T17:37:48.040Z,3.20
2023-04-10T17:40:14.993Z,2.22
2023-04-10T17:42:41.879Z,1.98
2023-04-10T17:45:09.441Z,2.20
2023-04-10T17:47:36.405Z,0.73
2023-04-10T17:50:03.400Z,2.78
2023-04-10T17:52:31.638Z,4.35
2023-04-10T17:54:59.650Z,3.42
2023-04-10T17:57:26.507Z,4.85
2023-04-10T17:59:53.324Z,3.42
2023-04-10T18:02:20.208Z,4.40
2023-04-10T18:04:47.086Z,3.90
2023-04-10T18:07:13.958Z,4.05
2023-04-10T18:09:42.197Z,5.18
2023-04-10T18:12:09.386Z,2.75
2023-04-10T18:14:36.324Z,5.07
2023-04-10T18:17:03.208Z,3.58
2023-04-10T18:19:30.098Z,3.85
2023-04-10T18:21:56.955Z,3.90
2023-04-10T18:24:23.795Z,5.63
2023-04-10T18:26:52.077Z,5.38
2023-04-10T18:29:18.944Z,8.70
2023-04-10T18:31:45.810Z,3.83
2023-04-10T18:34:12.818Z,3.10
2023-04-10T18:36:40.072Z,3.45
2023-04-10T18:39:06.980Z,4.45
2023-04-10T18:41:33.922Z,6.28
2023-04-10T18:44:05.338Z,4.05
2023-04-10T18:46:33.082Z,6.47
2023-04-10T18:49:00.140Z,5.88
2023-04-10T18:51:26.990Z,4.30
2023-04-10T18:53:55.076Z,4.53
2023-04-10T18:56:22.300Z,5.13
2023-04-10T18:58:50.193Z,5.75
2023-04-10T19:01:18.682Z,9.77
2023-04-10T19:03:46.259Z,6.10
2023-04-10T19:06:14.288Z,5.32
2023-04-10T19:08:41.235Z,9.10
2023-04-10T19:11:08.117Z,5.05
2023-04-10T19:13:35.022Z,3.75
2023-04-10T19:16:03.592Z,6.20
2023-04-10T19:18:31.821Z,6.53
2023-04-10T19:20:59.208Z,5.93
2023-04-10T19:23:26.497Z,9.02
2023-04-10T19:25:53.452Z,12.20
2023-04-10T19:28:20.369Z,4.88
2023-04-10T19:30:47.257Z,5.35
2023-04-10T19:33:14.161Z,7.05
2023-04-10T19:35:42.422Z,7.32
2023-04-10T19:38:09.277Z,5.93
2023-04-10T19:40:36.143Z,7.40
2023-04-10T19:43:03.055Z,6.63
2023-04-10T19:45:29.880Z,6.82
2023-04-10T19:47:57.052Z,5.72
2023-04-10T19:50:24.141Z,6.47
2023-04-10T19:52:53.038Z,7.85
2023-04-10T19:55:20.115Z,6.78
2023-04-10T19:57:47.363Z,10.38
2023-04-10T20:00:14.608Z,6.68
2023-04-10T20:02:41.832Z,11.13
2023-04-10T20:05:09.410Z,4.80
2023-04-10T20:07:36.376Z,3.00
2023-04-10T20:10:05.268Z,6.57
2023-04-10T20:12:32.487Z,5.88
2023-04-10T20:14:59.529Z,3.25
2023-04-10T20:17:26.645Z,5.00
2023-04-10T20:19:53.550Z,8.73
2023-04-10T20:22:20.441Z,5.38
2023-04-10T20:24:47.287Z,7.05
2023-04-10T20:27:16.079Z,4.85
2023-04-10T20:29:42.978Z,6.25
2023-04-10T20:32:09.843Z,2.95
2023-04-10T20:34:36.799Z,8.80
2023-04-10T20:37:03.782Z,5.00
2023-04-10T20:39:30.764Z,7.50
2023-04-10T20:41:57.876Z,7.13
2023-04-10T20:44:26.165Z,7.47
2023-04-10T20:46:54.102Z,6.15
2023-04-10T20:49:22.407Z,9.50
2023-04-10T20:51:49.276Z,6.18
2023-04-10T20:54:16.142Z,7.55
2023-04-10T20:56:43.990Z,5.82
2023-04-10T20:59:11.230Z,7.25
2023-04-10T21:01:39.865Z,6.13
2023-04-10T21:04:06.968Z,6.93
2023-04-10T21:06:33.834Z,7.22
2023-04-10T21:09:01.105Z,8.68
2023-04-10T21:11:28.085Z,6.85
2023-04-10T21:13:54.998Z,10.45
2023-04-10T21:16:21.891Z,6.95
2023-04-10T21:18:56.099Z,7.85
2023-04-10T21:21:23.121Z,6.72
2023-04-10T21:23:49.981Z,6.57
2023-04-10T21:26:16.826Z,7.75
2023-04-10T21:28:43.685Z,5.28
2023-04-10T21:31:10.528Z,7.65
2023-04-10T21:33:37.597Z,6.50
2023-04-10T21:36:06.687Z,3.72
2023-04-10T21:38:33.586Z,7.07
2023-04-10T21:41:00.464Z,5.53
2023-04-10T21:43:27.324Z,3.72
2023-04-10T21:45:54.364Z,5.05
2023-04-10T21:48:21.335Z,6.47
2023-04-10T21:50:49.205Z,4.75
2023-04-10T21:53:17.522Z,6.13
2023-04-10T21:55:44.570Z,5.03
2023-04-10T21:58:11.454Z,6.03
2023-04-10T22:00:38.396Z,6.30
2023-04-10T22:03:05.391Z,6.05
2023-04-10T22:05:32.314Z,9.93
2023-04-10T22:07:59.462Z,8.13
2023-04-10T22:10:27.796Z,4.93
2023-04-10T22:12:54.690Z,6.35
2023-04-10T22:15:21.594Z,5.50
2023-04-10T22:17:48.620Z,4.55
2023-04-10T22:20:15.984Z,6.53
2023-04-10T22:22:42.835Z,6.00
2023-04-10T22:25:09.858Z,5.97
2023-04-10T22:27:38.129Z,7.43
2023-04-10T22:30:06.107Z,6.20
2023-04-10T22:32:33.190Z,6.55
2023-04-10T22:35:00.183Z,11.23
2023-04-10T22:37:27.192Z,10.30
2023-04-10T22:39:54.214Z,8.90
2023-04-10T22:42:21.057Z,6.30
2023-04-10T22:44:49.305Z,6.70
2023-04-10T22:47:16.155Z,6.90
2023-04-10T22:49:43.060Z,4.15
2023-04-10T22:52:09.982Z,5.28
2023-04-10T22:54:36.874Z,6.07
2023-04-10T22:57:03.821Z,6.22
2023-04-10T22:59:31.183Z,4.22
2023-04-10T23:01:59.522Z,5.88
2023-04-10T23:04:26.537Z,8.90
2023-04-10T23:06:53.430Z,13.25
2023-04-10T23:09:20.328Z,5.65
2023-04-10T23:11:47.180Z,8.10
2023-04-10T23:14:14.061Z,4.88
2023-04-10T23:16:40.924Z,5.55
2023-04-10T23:19:09.205Z,7.78
2023-04-10T23:21:36.085Z,10.30
2023-04-10T23:24:03.070Z,7.90
2023-04-10T23:26:30.283Z,7.07
2023-04-10T23:28:57.157Z,7.03
2023-04-10T23:31:24.065Z,8.05
2023-04-10T23:33:51.004Z,9.68
2023-04-10T23:36:19.283Z,7.35
2023-04-10T23:38:46.150Z,11.85
2023-04-10T23:41:13.059Z,7.00
2023-04-10T23:43:39.913Z,8.68
2023-04-10T23:46:07.300Z,9.55
2023-04-10T23:48:34.268Z,9.60
2023-04-10T23:51:04.732Z,10.88
2023-04-10T23:53:33.047Z,8.88
2023-04-10T23:55:59.961Z,9.88
2023-04-10T23:58:26.840Z,7.38
